IBE0281 LEMD-RJAA
Flight info
| Callsign | IBE0281 |
|---|---|
| Flight time | N/A |
| Altitude | 36000 |
| Route | PINAR N870 BCN N725 OSPOK DCT NOLVI DCT ORKUM DCT ELSAG DCT ALG DCT XOLTA DCT RAMAP DCT NISVA Q13 UDROS UN743 GAKSU UT310 SIN UM860 CRM UM11 TBN UG261 NOLGA DCT BARAD M747 SUBUT T916 LEYLA N161 GASBI/K0898F360 N161 SARIN/K0893S1095 A368 FKG W188 LIKMI W270 DKO W69 HUR B339 LADIX W34 VAPGU W100 MUDOT DCT UNSEK A326 DONVO G597 AGAVO/N0481F360 Y644 EGOBA Y697 LANAT Y51 SAMON Y517 ESKAS Y303 ENTAK Y30 SWAMP |
| Aircraft | A359/H-SDE2E3GHIJ1J3J4J5LM1ORWXY/LB1D1 |
Departure
| Time | 2026-05-04 15:48 |
|---|---|
| Airport | Adolfo Suárez Madrid–Barajas Airport (LEMD) |
Arrival
| Time | N/A |
|---|---|
| Airport | Narita International Airport (RJAA) |
| Time | Latitude | Longitude | Altitude | Speed | Heading |
|---|---|---|---|---|---|
| 2026-05-04 15:05 | 40.46204 | -3.57000 | 1954 ft | 0 kts | 345° |
| 2026-05-04 15:34 | 40.46185 | -3.56994 | 1955 ft | 4 kts | 346° |
| 2026-05-04 15:34 | 40.46132 | -3.56980 | 1957 ft | 4 kts | 357° |
| 2026-05-04 15:35 | 40.46099 | -3.56988 | 1957 ft | 0 kts | 37° |
| 2026-05-04 15:38 | 40.46125 | -3.56955 | 1955 ft | 14 kts | 46° |
| 2026-05-04 15:38 | 40.46230 | -3.56838 | 1954 ft | 19 kts | 31° |
| 2026-05-04 15:38 | 40.46271 | -3.56781 | 1954 ft | 3 kts | 61° |
| 2026-05-04 15:39 | 40.46317 | -3.56719 | 1955 ft | 16 kts | 34° |
| 2026-05-04 15:39 | 40.46456 | -3.56675 | 1957 ft | 25 kts | 3° |
| 2026-05-04 15:39 | 40.46729 | -3.56655 | 1961 ft | 2 kts | 2° |
| 2026-05-04 15:40 | 40.46795 | -3.56650 | 1962 ft | 17 kts | 5° |
| 2026-05-04 15:40 | 40.46949 | -3.56677 | 1968 ft | 28 kts | 332° |
| 2026-05-04 15:40 | 40.47124 | -3.56863 | 1975 ft | 36 kts | 318° |
| 2026-05-04 15:40 | 40.47248 | -3.56921 | 1976 ft | 12 kts | 1° |
| 2026-05-04 15:41 | 40.47364 | -3.56975 | 1979 ft | 22 kts | 323° |
| 2026-05-04 15:41 | 40.47487 | -3.57159 | 1980 ft | 31 kts | 314° |
| 2026-05-04 15:41 | 40.47573 | -3.57180 | 1980 ft | 14 kts | 40° |
| 2026-05-04 15:41 | 40.47674 | -3.57167 | 1982 ft | 18 kts | 328° |
| 2026-05-04 15:42 | 40.47798 | -3.57292 | 1986 ft | 28 kts | 322° |
| 2026-05-04 15:42 | 40.47842 | -3.57337 | 1988 ft | 0 kts | 322° |
| 2026-05-04 15:42 | 40.47858 | -3.57350 | 1988 ft | 9 kts | 332° |
| 2026-05-04 15:43 | 40.47944 | -3.57345 | 1987 ft | 16 kts | 352° |
| 2026-05-04 15:43 | 40.48070 | -3.57448 | 1991 ft | 27 kts | 323° |
| 2026-05-04 15:43 | 40.48248 | -3.57629 | 1993 ft | 33 kts | 323° |
| 2026-05-04 15:43 | 40.48375 | -3.57755 | 1996 ft | 0 kts | 327° |
| 2026-05-04 15:44 | 40.48377 | -3.57757 | 1996 ft | 2 kts | 327° |
| 2026-05-04 15:44 | 40.48424 | -3.57800 | 1996 ft | 14 kts | 325° |
| 2026-05-04 15:44 | 40.48543 | -3.57890 | 1992 ft | 25 kts | 330° |
| 2026-05-04 15:44 | 40.48689 | -3.57933 | 1978 ft | 21 kts | 359° |
| 2026-05-04 15:45 | 40.48843 | -3.57903 | 1961 ft | 21 kts | 50° |
| 2026-05-04 15:45 | 40.49007 | -3.57832 | 1943 ft | 33 kts | 0° |
| 2026-05-04 15:45 | 40.49125 | -3.57832 | 1936 ft | 4 kts | 359° |
| 2026-05-04 15:45 | 40.49198 | -3.57829 | 1934 ft | 16 kts | 13° |
| 2026-05-04 15:46 | 40.49246 | -3.57690 | 1931 ft | 23 kts | 84° |
| 2026-05-04 15:46 | 40.49327 | -3.57487 | 1931 ft | 28 kts | 37° |
| 2026-05-04 15:46 | 40.49405 | -3.57463 | 1932 ft | 0 kts | 0° |
| 2026-05-04 15:46 | 40.49412 | -3.57463 | 1932 ft | 10 kts | 359° |
| 2026-05-04 15:47 | 40.49671 | -3.57465 | 1936 ft | 66 kts | 0° |
| 2026-05-04 15:47 | 40.50328 | -3.57480 | 1947 ft | 125 kts | 4° |
| 2026-05-04 15:47 | 40.51396 | -3.57495 | 2037 ft | 174 kts | 355° |
| 2026-05-04 15:47 | 40.52674 | -3.57534 | 2459 ft | 197 kts | 354° |
| 2026-05-04 15:48 | 40.54161 | -3.57584 | 2742 ft | 234 kts | 359° |
| 2026-05-04 15:48 | 40.55901 | -3.57195 | 2979 ft | 276 kts | 12° |
| 2026-05-04 15:48 | 40.60092 | -3.55626 | 3439 ft | 350 kts | 14° |
| 2026-05-04 15:49 | 40.62546 | -3.54709 | 3651 ft | 378 kts | 14° |
| 2026-05-04 15:49 | 40.65177 | -3.54093 | 3861 ft | 391 kts | 3° |
| 2026-05-04 15:49 | 40.67926 | -3.53839 | 4076 ft | 401 kts | 1° |
| 2026-05-04 15:49 | 40.70717 | -3.53209 | 4280 ft | 413 kts | 18° |
| 2026-05-04 15:50 | 40.73232 | -3.51414 | 4486 ft | 425 kts | 36° |
| 2026-05-04 15:50 | 40.75308 | -3.48491 | 4706 ft | 444 kts | 54° |
| 2026-05-04 15:50 | 40.76747 | -3.44755 | 4924 ft | 468 kts | 66° |
| 2026-05-04 15:50 | 40.78037 | -3.40928 | 5092 ft | 442 kts | 64° |
| 2026-05-04 15:51 | 40.79396 | -3.37453 | 5281 ft | 411 kts | 60° |
| 2026-05-04 15:51 | 40.80769 | -3.34298 | 5443 ft | 383 kts | 58° |
| 2026-05-04 15:51 | 40.82138 | -3.31356 | 5667 ft | 371 kts | 57° |
| 2026-05-04 15:51 | 40.83479 | -3.28591 | 5868 ft | 344 kts | 56° |
| 2026-05-04 15:52 | 40.84734 | -3.26047 | 6051 ft | 319 kts | 56° |
| 2026-05-04 15:52 | 40.85610 | -3.23519 | 6537 ft | 291 kts | 72° |
| 2026-05-04 15:52 | 40.86154 | -3.20953 | 6907 ft | 290 kts | 75° |
| 2026-05-04 15:52 | 40.86659 | -3.18357 | 7442 ft | 294 kts | 75° |
| 2026-05-04 15:53 | 40.87159 | -3.15784 | 8160 ft | 292 kts | 75° |
| 2026-05-04 15:53 | 40.87667 | -3.13182 | 8825 ft | 295 kts | 75° |
| 2026-05-04 15:53 | 40.88186 | -3.10535 | 9394 ft | 299 kts | 75° |
| 2026-05-04 15:53 | 40.88712 | -3.07858 | 9973 ft | 303 kts | 75° |
| 2026-05-04 15:54 | 40.89252 | -3.05110 | 10340 ft | 316 kts | 75° |
| 2026-05-04 15:54 | 40.89819 | -3.02224 | 10596 ft | 332 kts | 76° |
| 2026-05-04 15:54 | 40.90411 | -2.99206 | 10878 ft | 347 kts | 76° |
| 2026-05-04 15:54 | 40.91027 | -2.96054 | 11158 ft | 361 kts | 76° |
| 2026-05-04 15:55 | 40.91668 | -2.92775 | 11413 ft | 375 kts | 76° |
| 2026-05-04 15:55 | 40.92331 | -2.89383 | 11736 ft | 387 kts | 76° |
| 2026-05-04 15:55 | 40.93009 | -2.85904 | 12181 ft | 393 kts | 76° |
| 2026-05-04 15:55 | 40.93694 | -2.82378 | 12679 ft | 399 kts | 76° |
| 2026-05-04 15:56 | 40.94388 | -2.78800 | 13237 ft | 402 kts | 76° |
| 2026-05-04 15:56 | 40.95086 | -2.75203 | 13814 ft | 406 kts | 76° |
| 2026-05-04 15:56 | 40.95789 | -2.71567 | 14293 ft | 410 kts | 76° |
| 2026-05-04 15:56 | 40.96499 | -2.67895 | 14765 ft | 414 kts | 76° |
| 2026-05-04 15:57 | 40.97214 | -2.64188 | 15223 ft | 418 kts | 76° |
| 2026-05-04 15:57 | 40.97934 | -2.60442 | 15705 ft | 421 kts | 76° |
| 2026-05-04 15:57 | 40.98658 | -2.56669 | 16180 ft | 425 kts | 76° |
| 2026-05-04 15:57 | 40.99386 | -2.52866 | 16649 ft | 428 kts | 76° |
| 2026-05-04 15:58 | 41.00118 | -2.49030 | 17122 ft | 432 kts | 76° |
| 2026-05-04 15:58 | 41.00857 | -2.45154 | 17614 ft | 435 kts | 76° |
| 2026-05-04 15:58 | 41.01599 | -2.41252 | 18079 ft | 439 kts | 75° |
| 2026-05-04 15:58 | 41.02337 | -2.37364 | 18510 ft | 442 kts | 75° |
| 2026-05-04 15:59 | 41.02845 | -2.34698 | 18803 ft | 444 kts | 75° |
| 2026-05-04 15:59 | 41.03601 | -2.30722 | 19272 ft | 446 kts | 75° |
| 2026-05-04 15:59 | 41.04358 | -2.26720 | 19725 ft | 450 kts | 76° |
| 2026-05-04 15:59 | 41.05123 | -2.22667 | 20138 ft | 454 kts | 76° |
| 2026-05-04 16:00 | 41.05888 | -2.18602 | 20593 ft | 457 kts | 76° |
| 2026-05-04 16:00 | 41.06660 | -2.14494 | 21047 ft | 460 kts | 76° |
| 2026-05-04 16:00 | 41.07433 | -2.10377 | 21496 ft | 463 kts | 76° |
| 2026-05-04 16:00 | 41.08213 | -2.06219 | 21942 ft | 466 kts | 76° |
| 2026-05-04 16:01 | 41.08999 | -2.02027 | 22381 ft | 469 kts | 76° |
| 2026-05-04 16:01 | 41.09784 | -1.97810 | 22812 ft | 472 kts | 76° |
| 2026-05-04 16:01 | 41.10559 | -1.93628 | 23262 ft | 475 kts | 76° |
| 2026-05-04 16:01 | 41.11350 | -1.89353 | 23668 ft | 478 kts | 76° |
| 2026-05-04 16:02 | 41.12141 | -1.85061 | 24038 ft | 481 kts | 77° |
| 2026-05-04 16:02 | 41.12935 | -1.80748 | 24469 ft | 482 kts | 77° |
| 2026-05-04 16:02 | 41.14533 | -1.72047 | 25129 ft | 489 kts | 77° |
| 2026-05-04 16:03 | 41.15342 | -1.67631 | 25466 ft | 493 kts | 77° |
| 2026-05-04 16:03 | 41.16152 | -1.63197 | 25793 ft | 496 kts | 77° |
| 2026-05-04 16:03 | 41.16966 | -1.58730 | 26110 ft | 499 kts | 77° |
| 2026-05-04 16:03 | 41.17782 | -1.54243 | 26441 ft | 503 kts | 77° |
| 2026-05-04 16:04 | 41.18605 | -1.49713 | 26731 ft | 506 kts | 78° |
| 2026-05-04 16:04 | 41.20263 | -1.40562 | 27335 ft | 513 kts | 78° |
| 2026-05-04 16:04 | 41.21098 | -1.35939 | 27663 ft | 516 kts | 78° |
| 2026-05-04 16:05 | 41.21933 | -1.31287 | 27966 ft | 519 kts | 78° |
| 2026-05-04 16:05 | 41.22769 | -1.26619 | 28263 ft | 522 kts | 78° |
| 2026-05-04 16:05 | 41.24457 | -1.17165 | 28837 ft | 528 kts | 78° |
| 2026-05-04 16:06 | 41.25304 | -1.12408 | 29078 ft | 531 kts | 79° |
| 2026-05-04 16:06 | 41.27571 | -0.99618 | 29790 ft | 537 kts | 79° |
| 2026-05-04 16:07 | 41.28710 | -0.93153 | 30088 ft | 541 kts | 79° |
| 2026-05-04 16:07 | 41.31276 | -0.78519 | 30912 ft | 541 kts | 79° |
| 2026-05-04 16:08 | 41.32118 | -0.73694 | 31136 ft | 542 kts | 80° |
| 2026-05-04 16:08 | 41.34648 | -0.59032 | 31929 ft | 541 kts | 82° |
| 2026-05-04 16:09 | 41.35290 | -0.49224 | 32748 ft | 527 kts | 93° |
| 2026-05-04 16:09 | 41.35327 | -0.39458 | 33116 ft | 528 kts | 95° |
| 2026-05-04 16:10 | 41.35241 | -0.29675 | 33583 ft | 528 kts | 95° |
| 2026-05-04 16:11 | 41.35087 | -0.15011 | 34167 ft | 528 kts | 95° |
| 2026-05-04 16:11 | 41.35037 | -0.10126 | 34342 ft | 528 kts | 95° |
| 2026-05-04 16:12 | 41.34882 | 0.04530 | 34740 ft | 530 kts | 96° |
| 2026-05-04 16:12 | 41.34707 | 0.19277 | 35080 ft | 532 kts | 96° |
| 2026-05-04 16:13 | 41.34587 | 0.29117 | 35379 ft | 531 kts | 96° |
| 2026-05-04 16:13 | 41.34451 | 0.38888 | 35600 ft | 531 kts | 96° |
| 2026-05-04 16:14 | 41.34301 | 0.48811 | 35702 ft | 534 kts | 95° |
| 2026-05-04 16:14 | 41.34147 | 0.58637 | 35900 ft | 535 kts | 96° |
| 2026-05-04 16:16 | 41.33722 | 0.83576 | 35887 ft | 539 kts | 96° |
| 2026-05-04 16:17 | 41.33248 | 1.08434 | 35929 ft | 537 kts | 96° |
| 2026-05-04 16:18 | 41.32833 | 1.28300 | 35927 ft | 536 kts | 96° |
| 2026-05-04 16:19 | 41.32261 | 1.53009 | 35889 ft | 536 kts | 96° |
| 2026-05-04 16:20 | 41.31642 | 1.77804 | 35917 ft | 536 kts | 97° |
| 2026-05-04 16:22 | 41.30956 | 2.02582 | 35939 ft | 536 kts | 97° |
| 2026-05-04 16:23 | 41.27343 | 2.31482 | 35924 ft | 526 kts | 109° |
| 2026-05-04 16:25 | 41.22548 | 2.59970 | 35913 ft | 528 kts | 109° |
| 2026-05-04 16:26 | 41.16905 | 2.93189 | 35909 ft | 528 kts | 109° |
| 2026-05-04 16:28 | 41.12807 | 3.16923 | 35910 ft | 528 kts | 109° |
| 2026-05-04 16:29 | 41.07000 | 3.50035 | 35904 ft | 528 kts | 109° |
| 2026-05-04 16:31 | 41.02772 | 3.73792 | 35910 ft | 530 kts | 110° |
| 2026-05-04 16:32 | 40.97620 | 4.02281 | 35913 ft | 531 kts | 110° |
| 2026-05-04 16:33 | 40.94137 | 4.21279 | 35897 ft | 531 kts | 110° |
| 2026-05-04 16:34 | 40.91516 | 4.35461 | 35921 ft | 532 kts | 110° |
| 2026-05-04 16:35 | 40.86213 | 4.63946 | 35926 ft | 533 kts | 109° |
| 2026-05-04 16:36 | 40.84565 | 4.78573 | 35927 ft | 539 kts | 102° |
| 2026-05-04 16:37 | 40.83219 | 4.93310 | 35933 ft | 539 kts | 102° |
| 2026-05-04 16:38 | 40.81385 | 5.12864 | 35941 ft | 537 kts | 102° |
| 2026-05-04 16:39 | 40.79047 | 5.37035 | 35939 ft | 537 kts | 102° |
| 2026-05-04 16:40 | 40.77128 | 5.56529 | 35949 ft | 535 kts | 102° |
| 2026-05-04 16:41 | 40.74683 | 5.80854 | 35958 ft | 535 kts | 102° |
| 2026-05-04 16:43 | 40.72189 | 6.05145 | 35961 ft | 534 kts | 102° |
| 2026-05-04 16:43 | 40.70671 | 6.19653 | 35955 ft | 534 kts | 102° |
| 2026-05-04 16:45 | 40.67572 | 6.48736 | 35962 ft | 534 kts | 102° |
| 2026-05-04 16:46 | 40.64932 | 6.72973 | 35975 ft | 537 kts | 102° |
| 2026-05-04 16:47 | 40.62954 | 6.90828 | 35980 ft | 537 kts | 102° |
| 2026-05-04 16:48 | 40.60764 | 7.10294 | 35986 ft | 539 kts | 102° |
| 2026-05-04 16:49 | 40.58537 | 7.29789 | 35999 ft | 538 kts | 102° |
| 2026-05-04 16:50 | 40.56670 | 7.49339 | 35995 ft | 543 kts | 90° |
| 2026-05-04 16:51 | 40.57704 | 7.64150 | 36000 ft | 545 kts | 84° |
| 2026-05-04 16:52 | 40.59464 | 7.83952 | 36004 ft | 545 kts | 85° |
| 2026-05-04 16:53 | 40.60717 | 7.98803 | 36009 ft | 544 kts | 84° |
| 2026-05-04 16:54 | 40.62355 | 8.18618 | 36028 ft | 544 kts | 85° |
| 2026-05-04 16:55 | 40.66906 | 8.37478 | 36019 ft | 543 kts | 66° |
| 2026-05-04 16:55 | 40.69854 | 8.46674 | 36026 ft | 540 kts | 66° |
| 2026-05-04 16:56 | 40.77091 | 8.69488 | 36036 ft | 539 kts | 66° |
| 2026-05-04 16:57 | 40.81357 | 8.83136 | 36038 ft | 537 kts | 66° |
| 2026-05-04 16:58 | 40.87026 | 9.01368 | 36042 ft | 537 kts | 66° |
| 2026-05-04 17:00 | 40.95483 | 9.28798 | 36066 ft | 536 kts | 66° |
| 2026-05-04 17:01 | 41.02498 | 9.51762 | 36024 ft | 542 kts | 66° |
| 2026-05-04 17:02 | 41.08093 | 9.70230 | 36034 ft | 540 kts | 66° |
| 2026-05-04 17:03 | 41.12275 | 9.84114 | 36037 ft | 540 kts | 66° |
| 2026-05-04 17:03 | 41.16420 | 9.97946 | 36049 ft | 541 kts | 66° |
| 2026-05-04 17:04 | 41.21971 | 10.16587 | 36059 ft | 543 kts | 66° |
| 2026-05-04 17:05 | 41.27479 | 10.35221 | 36061 ft | 540 kts | 66° |
| 2026-05-04 17:06 | 41.31582 | 10.49181 | 36072 ft | 540 kts | 66° |
| 2026-05-04 17:07 | 41.35216 | 10.61611 | 36071 ft | 541 kts | 66° |
| 2026-05-04 17:07 | 41.38152 | 10.71704 | 36072 ft | 539 kts | 66° |
| 2026-05-04 17:08 | 41.42204 | 10.85687 | 36081 ft | 538 kts | 66° |
| 2026-05-04 17:09 | 41.44890 | 10.95000 | 36088 ft | 539 kts | 66° |
| 2026-05-04 17:09 | 41.47555 | 11.04276 | 36093 ft | 539 kts | 66° |
| 2026-05-04 17:10 | 41.54241 | 11.27690 | 36092 ft | 539 kts | 66° |
| 2026-05-04 17:11 | 41.56896 | 11.37050 | 36095 ft | 538 kts | 66° |
| 2026-05-04 17:12 | 41.60848 | 11.51046 | 36104 ft | 536 kts | 66° |
| 2026-05-04 17:13 | 41.67367 | 11.74303 | 36106 ft | 534 kts | 66° |
| 2026-05-04 17:14 | 41.72538 | 11.92905 | 36148 ft | 533 kts | 66° |
| 2026-05-04 17:15 | 41.76394 | 12.06866 | 36176 ft | 533 kts | 66° |
| 2026-05-04 17:16 | 41.81486 | 12.25423 | 36130 ft | 530 kts | 66° |
| 2026-05-04 17:17 | 41.86543 | 12.43991 | 36133 ft | 530 kts | 66° |
| 2026-05-04 17:18 | 41.91569 | 12.62581 | 36130 ft | 530 kts | 66° |
| 2026-05-04 17:19 | 41.96572 | 12.81226 | 36130 ft | 531 kts | 66° |
| 2026-05-04 17:20 | 42.01543 | 12.99901 | 36126 ft | 530 kts | 66° |
| 2026-05-04 17:20 | 42.05249 | 13.13916 | 36129 ft | 530 kts | 66° |
| 2026-05-04 17:21 | 42.10137 | 13.32522 | 36126 ft | 528 kts | 66° |
| 2026-05-04 17:22 | 42.12577 | 13.41864 | 36118 ft | 528 kts | 66° |
| 2026-05-04 17:23 | 42.17422 | 13.60525 | 36111 ft | 526 kts | 66° |
| 2026-05-04 17:24 | 42.21023 | 13.74489 | 36101 ft | 525 kts | 66° |
| 2026-05-04 17:25 | 42.25796 | 13.93123 | 36088 ft | 523 kts | 66° |
| 2026-05-04 17:26 | 42.30525 | 14.11722 | 36077 ft | 523 kts | 66° |
| 2026-05-04 17:27 | 42.36364 | 14.34904 | 36075 ft | 519 kts | 67° |
| 2026-05-04 17:28 | 42.40987 | 14.53419 | 36077 ft | 519 kts | 67° |
| 2026-05-04 17:29 | 42.47857 | 14.81205 | 36080 ft | 519 kts | 68° |
| 2026-05-04 17:31 | 42.53514 | 15.04345 | 36078 ft | 516 kts | 68° |
| 2026-05-04 17:32 | 42.58749 | 15.25961 | 36080 ft | 516 kts | 68° |
| 2026-05-04 17:33 | 42.63167 | 15.44375 | 36083 ft | 513 kts | 69° |
| 2026-05-04 17:34 | 42.67558 | 15.62815 | 36085 ft | 513 kts | 69° |
| 2026-05-04 17:35 | 42.72254 | 15.86126 | 36099 ft | 512 kts | 74° |
| 2026-05-04 17:36 | 42.73776 | 15.95576 | 36088 ft | 510 kts | 75° |
| 2026-05-04 17:36 | 42.75278 | 16.04996 | 36089 ft | 508 kts | 75° |
| 2026-05-04 17:37 | 42.76773 | 16.14377 | 36090 ft | 506 kts | 75° |
| 2026-05-04 17:37 | 42.78260 | 16.23735 | 36097 ft | 506 kts | 75° |
| 2026-05-04 17:38 | 42.79742 | 16.33110 | 36097 ft | 506 kts | 75° |
| 2026-05-04 17:38 | 42.81197 | 16.42369 | 36100 ft | 506 kts | 75° |